createdAt,value
2023-11-01T00:02:08.676Z,100.00
2023-11-01T00:05:10.703Z,100.00
2023-11-01T00:08:12.672Z,100.00
2023-11-01T00:11:15.348Z,100.00
2023-11-01T00:14:17.623Z,100.00
2023-11-01T00:17:21.618Z,100.00
2023-11-01T00:20:23.526Z,100.00
2023-11-01T00:23:26.173Z,100.00
2023-11-01T00:26:28.196Z,100.00
2023-11-01T00:29:30.176Z,100.00
2023-11-01T00:32:33.530Z,100.00
2023-11-01T00:35:35.459Z,100.00
2023-11-01T00:38:38.278Z,100.00
2023-11-01T00:41:40.211Z,100.00
2023-11-01T00:44:43.103Z,100.00
2023-11-01T00:47:46.445Z,100.00
2023-11-01T00:50:48.529Z,100.00
2023-11-01T00:53:51.448Z,100.00
2023-11-01T00:56:53.353Z,100.00
2023-11-01T00:59:56.098Z,100.00
2023-11-01T01:02:59.650Z,100.00
2023-11-01T01:06:01.658Z,100.00
2023-11-01T01:09:04.244Z,100.00
2023-11-01T01:12:07.033Z,100.00
2023-11-01T01:15:09.639Z,100.00
2023-11-01T01:18:15.822Z,100.00
2023-11-01T01:21:18.150Z,100.00
2023-11-01T01:24:20.038Z,100.00
2023-11-01T01:27:22.017Z,100.00
2023-11-01T01:30:23.969Z,100.00
2023-11-01T01:33:27.416Z,100.00
2023-11-01T01:36:29.341Z,100.00
2023-11-01T01:39:32.065Z,100.00
2023-11-01T01:42:33.959Z,100.00
2023-11-01T01:45:35.771Z,100.00
2023-11-01T01:48:40.581Z,100.00
2023-11-01T01:51:42.986Z,100.00
2023-11-01T01:54:45.017Z,100.00
2023-11-01T01:57:47.340Z,100.00
2023-11-01T02:00:50.752Z,100.00
2023-11-01T02:03:53.999Z,100.00
2023-11-01T02:06:55.948Z,100.00
2023-11-01T02:09:57.862Z,100.00
2023-11-01T02:13:09.853Z,100.00
2023-11-01T02:16:11.846Z,100.00
2023-11-01T02:19:17.955Z,100.00
2023-11-01T02:22:19.864Z,100.00
2023-11-01T02:25:23.088Z,100.00
2023-11-01T02:28:25.035Z,100.00
2023-11-01T02:31:26.942Z,100.00
2023-11-01T02:34:28.872Z,100.00
2023-11-01T02:37:31.841Z,100.00
2023-11-01T02:40:36.322Z,100.00
2023-11-01T02:43:38.159Z,100.00
2023-11-01T02:46:40.787Z,100.00
2023-11-01T02:49:42.649Z,100.00
2023-11-01T02:52:44.676Z,100.00
2023-11-01T02:55:48.099Z,100.00
2023-11-01T02:58:49.956Z,100.00
2023-11-01T03:01:52.996Z,100.00
2023-11-01T03:04:54.880Z,100.00
2023-11-01T03:07:57.654Z,100.00
2023-11-01T03:11:02.069Z,100.00
2023-11-01T03:14:03.960Z,100.00
2023-11-01T03:17:08.693Z,100.00
2023-11-01T03:20:12.457Z,100.00
2023-11-01T03:23:14.700Z,100.00
2023-11-01T03:26:17.974Z,100.00
2023-11-01T03:29:20.749Z,100.00
2023-11-01T03:32:25.551Z,100.00
2023-11-01T03:35:27.941Z,100.00
2023-11-01T03:38:30.806Z,100.00
2023-11-01T03:41:34.960Z,100.00
2023-11-01T03:44:37.744Z,100.00
2023-11-01T03:47:39.729Z,100.00
2023-11-01T03:50:41.745Z,100.00
2023-11-01T03:53:44.778Z,100.00
2023-11-01T03:56:48.121Z,100.00
2023-11-01T03:59:50.003Z,100.00
2023-11-01T04:02:52.759Z,100.00
2023-11-01T04:05:56.057Z,100.00
2023-11-01T04:08:58.607Z,100.00
2023-11-01T04:12:01.860Z,100.00
2023-11-01T04:15:06.563Z,100.00
2023-11-01T04:18:08.605Z,100.00
2023-11-01T04:21:10.639Z,100.00
2023-11-01T04:24:12.598Z,100.00
2023-11-01T04:27:15.864Z,100.00
2023-11-01T04:30:19.437Z,100.00
2023-11-01T04:33:21.432Z,100.00
2023-11-01T04:36:26.567Z,100.00
2023-11-01T04:39:28.406Z,100.00
2023-11-01T04:42:31.628Z,100.00
2023-11-01T04:45:34.489Z,100.00
2023-11-01T04:48:36.466Z,100.00
2023-11-01T04:51:38.453Z,100.00
2023-11-01T04:54:40.422Z,100.00
2023-11-01T04:57:43.656Z,100.00
2023-11-01T05:00:46.490Z,100.00
2023-11-01T05:03:48.306Z,100.00
2023-11-01T05:06:50.610Z,100.00
2023-11-01T05:09:52.425Z,100.00
2023-11-01T05:12:55.777Z,100.00
2023-11-01T05:15:57.609Z,100.00
2023-11-01T05:19:00.422Z,100.00
2023-11-01T05:22:02.293Z,100.00
2023-11-01T05:25:14.622Z,100.00
2023-11-01T05:28:19.015Z,100.00
2023-11-01T05:31:20.981Z,100.00
2023-11-01T05:34:23.058Z,100.00
2023-11-01T05:37:24.890Z,100.00
2023-11-01T05:40:26.705Z,100.00
2023-11-01T05:43:31.141Z,100.00
2023-11-01T05:46:33.080Z,100.00
2023-11-01T05:49:37.622Z,100.00
2023-11-01T05:52:40.205Z,100.00
2023-11-01T05:55:54.743Z,100.00
2023-11-01T05:59:05.832Z,100.00
2023-11-01T06:02:08.303Z,100.00
2023-11-01T06:05:10.256Z,100.00
2023-11-01T06:08:12.399Z,100.00
2023-11-01T06:11:14.253Z,100.00
2023-11-01T06:14:17.546Z,100.00
2023-11-01T06:17:20.528Z,100.00
2023-11-01T06:20:22.543Z,100.00
2023-11-01T06:23:24.452Z,100.00
2023-11-01T06:26:26.296Z,100.00
2023-11-01T06:29:29.852Z,100.00
2023-11-01T06:32:31.883Z,100.00
2023-11-01T06:35:34.329Z,100.00
2023-11-01T06:38:37.420Z,100.00
2023-11-01T06:41:39.554Z,100.00
2023-11-01T06:44:43.714Z,100.00
2023-11-01T06:47:45.681Z,100.00
2023-11-01T06:50:48.304Z,100.00
2023-11-01T06:53:50.219Z,100.00
2023-11-01T06:56:52.221Z,100.00
2023-11-01T06:59:55.608Z,100.00
2023-11-01T07:02:57.559Z,100.00
2023-11-01T07:06:00.513Z,100.00
2023-11-01T07:09:02.500Z,100.00
2023-11-01T07:12:04.880Z,100.00
2023-11-01T07:15:11.248Z,100.00
2023-11-01T07:18:13.409Z,100.00
2023-11-01T07:21:16.211Z,100.00
2023-11-01T07:24:18.078Z,100.00
2023-11-01T07:27:19.941Z,100.00
2023-11-01T07:30:23.553Z,100.00
2023-11-01T07:33:25.469Z,100.00
2023-11-01T07:36:28.204Z,100.00
2023-11-01T07:39:32.282Z,100.00
2023-11-01T07:42:34.207Z,96.32
2023-11-01T07:45:37.489Z,96.34
2023-11-01T07:48:39.441Z,92.09
2023-11-01T07:51:42.481Z,90.74
2023-11-01T07:54:44.331Z,90.25
2023-11-01T07:57:47.040Z,89.58
2023-11-01T08:00:50.190Z,90.15
2023-11-01T08:03:52.297Z,95.59
2023-11-01T08:06:55.563Z,98.49
2023-11-01T08:09:58.017Z,100.00
2023-11-01T08:13:00.343Z,98.94
2023-11-01T08:16:04.389Z,99.78
2023-11-01T08:19:06.831Z,100.00
2023-11-01T08:22:12.223Z,100.00
2023-11-01T08:25:14.128Z,100.00
2023-11-01T08:28:18.601Z,100.00
2023-11-01T08:31:22.452Z,100.00
2023-11-01T08:34:24.371Z,100.00
2023-11-01T08:37:26.936Z,100.00
2023-11-01T08:40:28.739Z,100.00
2023-11-01T08:43:30.986Z,100.00
2023-11-01T08:46:34.316Z,100.00
2023-11-01T08:49:36.948Z,100.00
2023-11-01T08:52:40.876Z,100.00
2023-11-01T08:55:42.912Z,100.00
2023-11-01T08:58:44.870Z,100.00
2023-11-01T09:01:48.236Z,100.00
2023-11-01T09:04:50.108Z,99.64
2023-11-01T09:07:53.161Z,100.00
2023-11-01T09:10:55.034Z,100.00
2023-11-01T09:13:56.959Z,100.00
2023-11-01T09:17:00.242Z,100.00
2023-11-01T09:20:02.356Z,98.52
2023-11-01T09:23:12.116Z,100.00
2023-11-01T09:26:16.647Z,98.76
2023-11-01T09:29:19.058Z,100.00
2023-11-01T09:32:22.371Z,98.77
2023-11-01T09:35:24.938Z,99.36
2023-11-01T09:38:26.855Z,99.21
2023-11-01T09:41:29.938Z,98.37
2023-11-01T09:44:32.999Z,98.81
2023-11-01T09:47:38.081Z,94.75
2023-11-01T09:50:43.063Z,93.09
2023-11-01T09:53:45.043Z,89.88
2023-11-01T09:56:47.948Z,88.20
2023-11-01T09:59:50.975Z,81.40
2023-11-01T10:02:54.921Z,83.41
2023-11-01T10:05:57.781Z,86.84
2023-11-01T10:08:59.687Z,82.31
2023-11-01T10:12:01.793Z,78.04
2023-11-01T10:15:04.741Z,77.79
2023-11-01T10:18:08.241Z,76.30
2023-11-01T10:21:10.857Z,74.33
2023-11-01T10:24:12.784Z,73.04
2023-11-01T10:27:14.599Z,71.74
2023-11-01T10:30:17.643Z,74.51
2023-11-01T10:33:22.818Z,76.10
2023-11-01T10:36:25.695Z,77.77
2023-11-01T10:39:27.786Z,77.71
2023-11-01T10:42:31.259Z,80.92
2023-11-01T10:45:33.922Z,80.38
2023-11-01T10:48:38.819Z,84.26
2023-11-01T10:51:42.957Z,83.52
2023-11-01T10:54:47.367Z,88.86
2023-11-01T10:57:51.068Z,82.79
2023-11-01T11:01:01.574Z,86.71
2023-11-01T11:04:14.227Z,82.95
2023-11-01T11:07:24.959Z,79.96
2023-11-01T11:10:28.389Z,81.54
2023-11-01T11:13:30.297Z,81.22
2023-11-01T11:17:07.987Z,76.32
2023-11-01T11:20:12.653Z,74.30
2023-11-01T11:23:15.729Z,74.26
2023-11-01T11:26:40.966Z,72.96
2023-11-01T11:29:43.659Z,73.56
2023-11-01T11:32:45.767Z,68.68
2023-11-01T11:36:15.289Z,68.61
2023-11-01T11:39:17.317Z,66.74
2023-11-01T11:42:51.836Z,61.02
2023-11-01T11:46:29.620Z,61.65
2023-11-01T11:49:33.604Z,64.63
2023-11-01T11:52:37.210Z,58.52
2023-11-01T11:55:47.442Z,61.96
2023-11-01T11:58:50.995Z,57.99
2023-11-01T12:01:54.146Z,63.82
2023-11-01T12:04:57.743Z,57.29
2023-11-01T12:08:02.521Z,57.99
2023-11-01T12:11:04.949Z,56.59
2023-11-01T12:14:06.761Z,60.41
2023-11-01T12:17:08.608Z,59.84
2023-11-01T12:20:11.515Z,59.11
2023-11-01T12:23:14.776Z,69.38
2023-11-01T12:26:17.701Z,57.34
2023-11-01T12:29:19.586Z,60.93
2023-11-01T12:32:30.881Z,58.28
2023-11-01T12:35:44.723Z,61.13
2023-11-01T12:38:47.910Z,64.17
2023-11-01T12:41:50.364Z,61.82
2023-11-01T12:44:53.770Z,58.74
2023-11-01T12:47:58.498Z,57.14
2023-11-01T12:51:00.504Z,56.63
2023-11-01T12:54:05.019Z,58.53
2023-11-01T12:57:07.642Z,64.58
2023-11-01T13:00:10.707Z,61.74
2023-11-01T13:03:13.987Z,60.77
2023-11-01T13:06:16.001Z,62.78
2023-11-01T13:09:20.090Z,66.36
2023-11-01T13:12:22.010Z,63.81
2023-11-01T13:15:26.296Z,61.25
2023-11-01T13:18:28.648Z,63.81
2023-11-01T13:21:31.807Z,62.53
2023-11-01T13:24:35.144Z,59.34
2023-11-01T13:27:37.288Z,59.34
2023-11-01T13:30:39.254Z,63.99
2023-11-01T13:33:41.560Z,61.90
2023-11-01T13:36:43.537Z,61.51
2023-11-01T13:39:47.594Z,60.67
2023-11-01T13:42:49.501Z,63.24
2023-11-01T13:45:53.549Z,67.19
2023-11-01T13:48:55.518Z,76.36
2023-11-01T13:51:57.740Z,66.38
2023-11-01T13:55:01.570Z,68.18
2023-11-01T13:58:03.577Z,65.54
2023-11-01T14:01:08.371Z,70.95
2023-11-01T14:04:10.423Z,65.07
2023-11-01T14:07:12.390Z,68.13
2023-11-01T14:10:17.531Z,69.40
2023-11-01T14:13:19.377Z,71.22
2023-11-01T14:16:21.307Z,73.97
2023-11-01T14:19:24.102Z,76.88
2023-11-01T14:22:25.968Z,81.80
2023-11-01T14:25:29.192Z,81.09
2023-11-01T14:28:31.290Z,76.81
2023-11-01T14:31:33.224Z,79.20
2023-11-01T14:34:35.147Z,78.01
2023-11-01T14:37:37.172Z,78.05
2023-11-01T14:40:40.446Z,83.44
2023-11-01T14:43:43.323Z,86.45
2023-11-01T14:46:46.011Z,78.81
2023-11-01T14:49:48.042Z,79.44
2023-11-01T14:52:50.610Z,82.32
2023-11-01T14:55:54.667Z,86.06
2023-11-01T14:58:57.053Z,95.66
2023-11-01T15:01:58.987Z,94.82
2023-11-01T15:05:04.250Z,96.60
2023-11-01T15:08:06.424Z,94.74
2023-11-01T15:11:11.455Z,93.39
2023-11-01T15:14:13.464Z,97.80
2023-11-01T15:17:16.154Z,98.75
2023-11-01T15:20:18.028Z,100.00
2023-11-01T15:23:19.852Z,100.00
2023-11-01T15:26:23.351Z,100.00
2023-11-01T15:29:25.249Z,100.00
2023-11-01T15:32:27.924Z,100.00
2023-11-01T15:35:29.787Z,100.00
2023-11-01T15:38:32.061Z,100.00
2023-11-01T15:41:35.348Z,100.00
2023-11-01T15:44:37.370Z,100.00
2023-11-01T15:47:39.334Z,100.00
2023-11-01T15:50:43.089Z,100.00
2023-11-01T15:53:45.174Z,99.03
2023-11-01T15:56:49.530Z,98.70
2023-11-01T15:59:51.613Z,100.00
2023-11-01T16:02:54.393Z,100.00
2023-11-01T16:05:56.568Z,100.00
2023-11-01T16:08:59.225Z,100.00
2023-11-01T16:12:03.336Z,100.00
2023-11-01T16:15:07.161Z,100.00
2023-11-01T16:18:10.455Z,100.00
2023-11-01T16:21:13.392Z,100.00
2023-11-01T16:24:16.119Z,100.00
2023-11-01T16:27:23.019Z,100.00
2023-11-01T16:30:25.334Z,100.00
2023-11-01T16:33:27.608Z,100.00
2023-11-01T16:36:31.188Z,100.00
2023-11-01T16:39:36.145Z,100.00
2023-11-01T16:42:41.012Z,100.00
2023-11-01T16:45:43.276Z,100.00
2023-11-01T16:48:46.772Z,100.00
2023-11-01T16:51:49.671Z,100.00
2023-11-01T16:54:52.993Z,96.72
2023-11-01T16:57:58.488Z,98.15
2023-11-01T17:01:03.029Z,96.25
2023-11-01T17:04:07.205Z,95.56
2023-11-01T17:07:10.424Z,93.38
2023-11-01T17:10:13.015Z,95.72
2023-11-01T17:13:17.818Z,94.67
2023-11-01T17:16:22.705Z,94.22
2023-11-01T17:19:25.241Z,94.07
2023-11-01T17:22:54.489Z,96.22
2023-11-01T17:26:25.386Z,95.28
2023-11-01T17:29:33.973Z,96.03
2023-11-01T17:32:39.794Z,95.32
2023-11-01T17:35:43.497Z,94.95
2023-11-01T17:38:47.091Z,96.55
2023-11-01T17:41:59.686Z,94.36
2023-11-01T17:45:03.083Z,95.75
2023-11-01T17:48:05.518Z,95.69
2023-11-01T17:51:07.405Z,96.54
2023-11-01T17:54:10.484Z,96.25
2023-11-01T17:57:14.086Z,94.76
2023-11-01T18:00:22.819Z,95.55
2023-11-01T18:03:30.563Z,94.93
2023-11-01T18:06:32.683Z,95.34
2023-11-01T18:09:34.617Z,95.54
2023-11-01T18:12:36.464Z,95.71
2023-11-01T18:15:40.033Z,97.14
2023-11-01T18:18:46.771Z,95.05
2023-11-01T18:21:49.130Z,96.47
2023-11-01T18:24:50.933Z,96.07
2023-11-01T18:27:53.442Z,98.12
2023-11-01T18:30:57.416Z,96.02
2023-11-01T18:34:01.776Z,95.90
2023-11-01T18:37:03.888Z,96.07
2023-11-01T18:40:09.615Z,94.74
2023-11-01T18:43:11.500Z,96.00
2023-11-01T18:46:14.712Z,97.04
2023-11-01T18:49:37.352Z,97.72
2023-11-01T18:52:39.217Z,96.46
2023-11-01T18:55:41.377Z,95.99
2023-11-01T18:58:43.158Z,96.13
2023-11-01T19:01:47.109Z,95.92
2023-11-01T19:04:49.088Z,95.29
2023-11-01T19:07:50.944Z,97.71
2023-11-01T19:10:56.157Z,98.03
2023-11-01T19:13:58.910Z,96.83
2023-11-01T19:17:02.776Z,98.23
2023-11-01T19:20:05.476Z,97.99
2023-11-01T19:23:07.895Z,99.51
2023-11-01T19:26:10.525Z,98.28
2023-11-01T19:29:12.271Z,98.13
2023-11-01T19:32:15.690Z,97.39
2023-11-01T19:35:17.738Z,99.01
2023-11-01T19:38:23.236Z,98.19
2023-11-01T19:41:25.395Z,99.65
2023-11-01T19:44:27.151Z,100.00
2023-11-01T19:47:32.040Z,100.00
2023-11-01T19:50:34.540Z,100.00
2023-11-01T19:53:37.287Z,100.00
2023-11-01T19:56:39.051Z,100.00
2023-11-01T19:59:41.311Z,100.00
2023-11-01T20:02:44.898Z,100.00
2023-11-01T20:05:47.207Z,98.66
2023-11-01T20:08:49.116Z,97.89
2023-11-01T20:11:52.142Z,97.48
2023-11-01T20:14:54.793Z,95.84
2023-11-01T20:18:01.392Z,94.59
2023-11-01T20:21:03.281Z,95.32
2023-11-01T20:24:06.045Z,95.33
2023-11-01T20:27:07.929Z,94.32
2023-11-01T20:30:10.192Z,94.86
2023-11-01T20:33:13.846Z,93.92
2023-11-01T20:36:15.826Z,95.85
2023-11-01T20:39:18.200Z,94.23
2023-11-01T20:42:20.024Z,94.29
2023-11-01T20:45:21.788Z,95.67
2023-11-01T20:48:25.535Z,96.44
2023-11-01T20:51:27.313Z,95.26
2023-11-01T20:54:30.106Z,95.57
2023-11-01T20:57:33.262Z,94.32
2023-11-01T21:00:35.181Z,94.41
2023-11-01T21:03:38.551Z,93.71
2023-11-01T21:06:42.366Z,89.33
2023-11-01T21:09:46.297Z,85.88
2023-11-01T21:12:48.272Z,85.00
2023-11-01T21:15:51.315Z,83.36
2023-11-01T21:18:54.988Z,81.97
2023-11-01T21:21:57.886Z,80.97
2023-11-01T21:25:00.290Z,81.30
2023-11-01T21:28:04.093Z,81.87
2023-11-01T21:31:08.643Z,81.56
2023-11-01T21:34:12.602Z,82.26
2023-11-01T21:37:14.525Z,82.64
2023-11-01T21:40:17.128Z,82.76
2023-11-01T21:43:21.713Z,82.96
2023-11-01T21:46:25.864Z,82.96
2023-11-01T21:49:33.303Z,83.70
2023-11-01T21:52:35.146Z,83.17
2023-11-01T21:55:50.981Z,85.17
2023-11-01T21:59:05.130Z,84.55
2023-11-01T22:02:15.896Z,84.47
2023-11-01T22:05:20.267Z,84.43
2023-11-01T22:09:02.188Z,85.15
2023-11-01T22:12:07.306Z,86.00
2023-11-01T22:15:16.930Z,85.65
2023-11-01T22:18:22.242Z,85.88
2023-11-01T22:21:31.913Z,86.26
2023-11-01T22:24:37.381Z,87.19
2023-11-01T22:27:45.882Z,89.36
2023-11-01T22:30:48.519Z,92.77
2023-11-01T22:33:54.414Z,94.94
2023-11-01T22:36:58.015Z,97.32
2023-11-01T22:39:59.935Z,97.78
2023-11-01T22:43:02.219Z,98.86
2023-11-01T22:46:05.537Z,99.08
2023-11-01T22:49:08.519Z,100.00
2023-11-01T22:52:12.387Z,100.00
2023-11-01T22:55:15.120Z,100.00
2023-11-01T22:58:17.027Z,100.00
2023-11-01T23:01:19.869Z,100.00
2023-11-01T23:04:22.019Z,100.00
2023-11-01T23:07:26.256Z,100.00
2023-11-01T23:10:30.674Z,100.00
2023-11-01T23:13:32.707Z,100.00
2023-11-01T23:16:38.030Z,100.00
2023-11-01T23:19:40.435Z,100.00
2023-11-01T23:22:45.819Z,100.00
2023-11-01T23:25:49.251Z,100.00
2023-11-01T23:29:06.192Z,100.00
2023-11-01T23:32:14.335Z,100.00
2023-11-01T23:35:16.189Z,100.00
2023-11-01T23:38:19.417Z,100.00
2023-11-01T23:41:43.075Z,100.00
2023-11-01T23:44:45.339Z,100.00
2023-11-01T23:47:51.655Z,100.00
2023-11-01T23:50:53.822Z,100.00
2023-11-01T23:53:57.327Z,100.00
2023-11-01T23:56:59.862Z,100.00
